Time;durP1;ratioP1;P1;durP2;ratioP2;P2;SDS_P1;SDS_P2;PMS_P1;PMS_P2;Temp;Humidity;BMP_temperature;BMP_pressure;BME280_temperature;BME280_humidity;BME280_pressure;Samples;Min_cycle;Max_cycle;Signal;HPM_P1;HPM_P2
2020/12/27 00:00:39;;;;;;;6.70;5.87;;;7.70;99.90;;;;;;5005579;28;20677;-83
2020/12/27 00:03:05;;;;;;;7.43;5.10;;;7.70;99.90;;;;;;5010341;28;20203;-81
2020/12/27 00:05:32;;;;;;;8.37;5.63;;;7.70;99.90;;;;;;5010276;28;20249;-85
2020/12/27 00:07:58;;;;;;;7.47;6.23;;;7.70;99.90;;;;;;5010367;28;20200;-84
2020/12/27 00:10:25;;;;;;;5.90;5.30;;;7.60;99.90;;;;;;5010445;28;20479;-86
2020/12/27 00:12:52;;;;;;;8.47;6.53;;;7.60;99.90;;;;;;5016432;23;20239;-82
2020/12/27 00:15:18;;;;;;;5.97;5.30;;;7.60;99.90;;;;;;5010315;28;20203;-81
2020/12/27 00:17:45;;;;;;;7.03;5.20;;;7.70;99.90;;;;;;5009809;28;20624;-83
2020/12/27 00:20:11;;;;;;;8.07;5.47;;;7.70;99.90;;;;;;5009602;28;20646;-84
2020/12/27 00:22:38;;;;;;;6.30;5.57;;;7.70;99.90;;;;;;5009332;28;20203;-84
2020/12/27 00:25:04;;;;;;;8.03;5.40;;;7.70;99.90;;;;;;5009983;28;20223;-82
2020/12/27 00:27:32;;;;;;;6.43;5.70;;;7.60;99.90;;;;;;5010185;28;20234;-87
2020/12/27 00:29:58;;;;;;;6.00;5.40;;;7.60;99.90;;;;;;5009383;28;20591;-84
2020/12/27 00:32:27;;;;;;;5.97;5.03;;;7.60;99.90;;;;;;5006926;28;20211;-84
2020/12/27 00:34:53;;;;;;;7.17;5.53;;;7.60;99.90;;;;;;5005766;28;20283;-84
2020/12/27 00:37:20;;;;;;;6.77;6.07;;;7.60;99.90;;;;;;5007681;28;20207;-84
2020/12/27 00:39:47;;;;;;;5.47;4.97;;;7.60;99.90;;;;;;5009260;28;20207;-83
2020/12/27 00:42:13;;;;;;;5.70;5.07;;;7.60;99.90;;;;;;5009258;28;20207;-84
2020/12/27 00:44:40;;;;;;;5.97;5.47;;;7.60;99.90;;;;;;5009164;28;20230;-82
2020/12/27 00:47:06;;;;;;;6.13;4.80;;;7.60;99.90;;;;;;5008408;28;20203;-84
2020/12/27 00:49:33;;;;;;;6.37;5.47;;;7.60;99.90;;;;;;5008201;28;20200;-82
2020/12/27 00:51:59;;;;;;;6.20;4.70;;;7.60;99.90;;;;;;5007561;28;20199;-84
2020/12/27 00:54:25;;;;;;;6.87;5.23;;;7.50;99.90;;;;;;5007489;28;20250;-80
2020/12/27 00:56:52;;;;;;;5.87;5.27;;;7.60;99.90;;;;;;5007398;28;20203;-81
2020/12/27 00:59:19;;;;;;;5.83;5.30;;;7.60;99.90;;;;;;5006551;28;20219;-81
2020/12/27 01:01:46;;;;;;;6.90;6.20;;;7.60;99.90;;;;;;5007466;28;20219;-84
2020/12/27 01:04:12;;;;;;;6.50;5.90;;;7.60;99.90;;;;;;5005743;28;20203;-81
2020/12/27 01:06:38;;;;;;;7.70;6.50;;;7.50;99.90;;;;;;5006655;28;20596;-80
2020/12/27 01:09:05;;;;;;;8.17;7.13;;;7.50;99.90;;;;;;5005988;28;20920;-84
2020/12/27 01:11:32;;;;;;;8.17;7.33;;;7.50;99.90;;;;;;5007894;28;20243;-86
2020/12/27 01:13:58;;;;;;;8.10;7.03;;;7.50;99.90;;;;;;5006640;28;20214;-83
2020/12/27 01:16:25;;;;;;;8.93;8.00;;;7.50;99.90;;;;;;5006059;28;20298;-85
2020/12/27 01:18:54;;;;;;;8.47;7.23;;;7.50;99.90;;;;;;5007802;28;20658;-80
2020/12/27 01:21:24;;;;;;;8.93;6.90;;;7.50;99.90;;;;;;5006637;28;20203;-80
2020/12/27 01:23:51;;;;;;;7.67;6.97;;;7.40;99.90;;;;;;5007269;28;20207;-81
2020/12/27 01:26:17;;;;;;;10.57;8.40;;;7.40;99.90;;;;;;5007181;28;20207;-80
2020/12/27 01:28:43;;;;;;;7.50;6.60;;;7.40;99.90;;;;;;5006736;28;20203;-84
2020/12/27 01:31:09;;;;;;;9.13;7.50;;;7.40;99.90;;;;;;5006646;28;20215;-86
2020/12/27 01:33:36;;;;;;;8.07;7.23;;;7.30;99.90;;;;;;5007204;28;20203;-82
2020/12/27 01:36:03;;;;;;;8.70;7.90;;;7.30;99.90;;;;;;5006819;28;20210;-86
2020/12/27 01:38:29;;;;;;;8.83;6.90;;;7.30;99.90;;;;;;5005571;28;20230;-83
2020/12/27 01:41:03;;;;;;;8.10;7.33;;;7.30;99.90;;;;;;5007427;28;20218;-91
2020/12/27 01:43:30;;;;;;;8.57;7.67;;;7.30;99.90;;;;;;5006796;28;20198;-86
2020/12/27 01:45:56;;;;;;;8.10;7.20;;;7.30;99.90;;;;;;5006936;28;20207;-84
2020/12/27 01:48:23;;;;;;;7.90;7.20;;;7.30;99.90;;;;;;5006936;28;20214;-81
2020/12/27 01:50:50;;;;;;;7.87;7.07;;;7.20;99.90;;;;;;5006873;28;20258;-91
2020/12/27 01:53:18;;;;;;;9.03;8.13;;;7.20;99.90;;;;;;5008069;28;20214;-85
2020/12/27 01:55:44;;;;;;;10.67;7.67;;;7.20;99.90;;;;;;5007568;28;20211;-82
2020/12/27 01:58:19;;;;;;;8.97;7.37;;;7.20;99.90;;;;;;5007094;28;20234;-79
2020/12/27 02:00:45;;;;;;;8.43;7.53;;;7.20;99.90;;;;;;5007491;28;20238;-83
2020/12/27 02:03:13;;;;;;;8.97;7.13;;;7.20;99.90;;;;;;5007701;28;20226;-83
2020/12/27 02:05:42;;;;;;;9.00;6.83;;;7.10;99.90;;;;;;5006819;28;20250;-80
2020/12/27 02:08:08;;;;;;;9.53;8.00;;;7.10;99.90;;;;;;5007256;28;20196;-81
2020/12/27 02:10:37;;;;;;;8.77;7.87;;;7.10;99.90;;;;;;5008202;28;20206;-87
2020/12/27 02:13:04;;;;;;;10.77;8.37;;;7.10;99.90;;;;;;5006738;28;20239;-79
2020/12/27 02:15:30;;;;;;;8.97;7.90;;;7.00;99.90;;;;;;5009223;28;20203;-81
2020/12/27 02:17:57;;;;;;;8.33;7.53;;;7.00;99.90;;;;;;5010827;28;20545;-81
2020/12/27 02:20:23;;;;;;;9.47;8.10;;;7.00;99.90;;;;;;5012196;28;20191;-88
2020/12/27 02:22:50;;;;;;;9.07;7.67;;;7.10;99.90;;;;;;5012666;28;20221;-86
2020/12/27 02:25:17;;;;;;;9.10;7.47;;;7.00;99.90;;;;;;5012491;28;20206;-85
2020/12/27 02:27:43;;;;;;;10.13;8.00;;;7.00;99.90;;;;;;5012274;28;20203;-82
2020/12/27 02:30:10;;;;;;;12.20;8.63;;;6.90;99.90;;;;;;5011096;28;20215;-81
2020/12/27 02:32:37;;;;;;;9.27;7.67;;;6.90;99.90;;;;;;5011931;28;20691;-85
2020/12/27 02:35:05;;;;;;;10.23;8.40;;;6.90;99.90;;;;;;5011601;28;20203;-85
2020/12/27 02:37:31;;;;;;;10.37;8.80;;;6.90;99.90;;;;;;5011677;28;20214;-84
2020/12/27 02:39:57;;;;;;;10.37;8.93;;;6.80;99.90;;;;;;5011894;28;20211;-82
2020/12/27 02:42:24;;;;;;;12.53;8.37;;;6.80;99.90;;;;;;5011785;28;20202;-87
2020/12/27 02:47:34;;;;;;;9.90;8.53;;;6.80;99.90;;;;;;5010874;28;20819;-84
2020/12/27 02:50:00;;;;;;;16.57;9.93;;;6.80;99.90;;;;;;5012332;28;20216;-87
2020/12/27 02:52:26;;;;;;;12.87;9.50;;;6.80;99.90;;;;;;5009090;28;20734;-87
2020/12/27 02:54:53;;;;;;;11.03;8.90;;;6.70;99.90;;;;;;5008026;28;20207;-86
2020/12/27 02:57:19;;;;;;;9.80;8.77;;;6.70;99.90;;;;;;5013014;28;20199;-87
2020/12/27 02:59:46;;;;;;;10.93;8.87;;;6.70;99.90;;;;;;5013509;28;20231;-86
2020/12/27 03:02:13;;;;;;;9.47;8.57;;;6.60;99.90;;;;;;5014017;28;20854;-89
2020/12/27 03:04:39;;;;;;;10.53;8.77;;;6.60;99.90;;;;;;5014062;28;20207;-88
2020/12/27 03:07:05;;;;;;;10.27;8.60;;;6.60;99.90;;;;;;5013590;28;20207;-88
2020/12/27 03:09:32;;;;;;;10.90;8.93;;;6.60;99.90;;;;;;5013431;28;20207;-89
2020/12/27 03:11:58;;;;;;;9.40;8.00;;;6.60;99.90;;;;;;5013363;28;20298;-87
2020/12/27 03:14:26;;;;;;;9.90;8.73;;;6.50;99.90;;;;;;5013123;28;20326;-86
2020/12/27 03:16:53;;;;;;;8.93;8.03;;;6.50;99.90;;;;;;5013175;28;20192;-85
2020/12/27 03:19:20;;;;;;;9.27;8.00;;;6.50;99.90;;;;;;5011774;28;20223;-89
2020/12/27 03:21:46;;;;;;;9.97;7.53;;;6.40;99.90;;;;;;5023480;28;20253;-85
2020/12/27 03:24:12;;;;;;;9.03;7.00;;;6.40;99.90;;;;;;5032461;28;20198;-84
2020/12/27 03:26:38;;;;;;;10.60;7.43;;;6.40;99.90;;;;;;5033000;28;20218;-85
2020/12/27 03:29:05;;;;;;;7.57;6.70;;;6.40;99.90;;;;;;5032265;28;20225;-83
2020/12/27 03:31:31;;;;;;;12.70;7.37;;;6.40;99.90;;;;;;5032667;28;20610;-82
2020/12/27 03:33:58;;;;;;;9.57;7.43;;;6.30;99.90;;;;;;5032315;28;20595;-88
2020/12/27 03:36:25;;;;;;;9.47;7.27;;;6.30;99.90;;;;;;5032995;28;20203;-86
2020/12/27 03:38:52;;;;;;;8.10;6.33;;;6.30;99.90;;;;;;5032289;28;20226;-87
2020/12/27 03:41:18;;;;;;;7.30;6.07;;;6.30;99.90;;;;;;5032451;28;20210;-88
2020/12/27 03:43:45;;;;;;;7.73;5.90;;;6.30;99.90;;;;;;5031206;28;20230;-86
2020/12/27 03:46:12;;;;;;;7.60;6.30;;;6.30;99.90;;;;;;5030896;28;20191;-83
2020/12/27 03:48:38;;;;;;;6.30;5.70;;;6.20;99.90;;;;;;5031006;28;20203;-83
2020/12/27 03:51:05;;;;;;;6.90;6.20;;;6.30;99.90;;;;;;5030870;28;20195;-84
2020/12/27 03:53:32;;;;;;;6.43;5.83;;;6.20;99.90;;;;;;5031349;28;20215;-89
2020/12/27 03:55:58;;;;;;;6.27;5.50;;;6.20;99.90;;;;;;5032508;28;20209;-86
2020/12/27 03:58:24;;;;;;;6.57;5.50;;;6.30;99.90;;;;;;5031823;28;20880;-85
2020/12/27 04:00:51;;;;;;;6.33;5.10;;;6.30;99.90;;;;;;5031189;28;20245;-84
2020/12/27 04:03:17;;;;;;;9.03;5.60;;;6.30;99.90;;;;;;5035540;28;20205;-83
2020/12/27 04:05:43;;;;;;;6.47;5.33;;;6.20;99.90;;;;;;5033054;28;20206;-83
2020/12/27 04:08:11;;;;;;;5.50;4.97;;;6.20;99.90;;;;;;5032114;28;20202;-88
2020/12/27 04:10:37;;;;;;;6.53;4.70;;;6.20;99.90;;;;;;5031100;28;20210;-83
2020/12/27 04:13:04;;;;;;;7.67;4.87;;;6.20;99.90;;;;;;5030126;28;20989;-83
2020/12/27 04:15:30;;;;;;;8.27;5.20;;;6.20;99.90;;;;;;5031206;28;20754;-83
2020/12/27 04:17:57;;;;;;;5.70;5.10;;;6.30;99.90;;;;;;5030198;28;20627;-86
2020/12/27 04:20:23;;;;;;;6.77;5.30;;;6.20;99.90;;;;;;5030523;28;20953;-85
2020/12/27 04:22:50;;;;;;;6.47;4.77;;;6.30;99.90;;;;;;5012052;28;20207;-88
2020/12/27 04:25:18;;;;;;;7.07;5.20;;;6.20;99.90;;;;;;5011607;28;20203;-84
2020/12/27 04:27:44;;;;;;;7.43;5.43;;;6.20;99.90;;;;;;5010995;28;20203;-82
2020/12/27 04:30:11;;;;;;;5.93;5.30;;;6.20;99.90;;;;;;5008491;28;20266;-82
2020/12/27 04:32:37;;;;;;;5.97;5.37;;;6.20;99.90;;;;;;5009220;28;20214;-83
2020/12/27 04:35:04;;;;;;;7.20;4.90;;;6.20;99.90;;;;;;5010732;28;20203;-85
2020/12/27 04:37:31;;;;;;;6.43;5.50;;;6.20;99.90;;;;;;5010312;28;20246;-82
2020/12/27 04:39:57;;;;;;;6.63;5.33;;;6.30;99.90;;;;;;5010357;28;20644;-82
2020/12/27 04:42:25;;;;;;;8.50;5.33;;;6.30;99.90;;;;;;5011115;28;20207;-85
2020/12/27 04:44:54;;;;;;;5.27;4.77;;;6.30;99.90;;;;;;5010556;28;20226;-86
2020/12/27 04:47:23;;;;;;;5.77;5.17;;;6.30;99.90;;;;;;5005596;28;20207;-87
2020/12/27 04:49:50;;;;;;;5.63;5.13;;;6.30;99.90;;;;;;5005185;28;20203;-83
2020/12/27 04:52:20;;;;;;;6.00;4.70;;;6.30;99.90;;;;;;5006262;28;20208;-83
2020/12/27 04:54:48;;;;;;;5.13;4.60;;;6.30;99.90;;;;;;5010557;28;20230;-85
2020/12/27 04:57:15;;;;;;;5.47;4.67;;;6.30;99.90;;;;;;5009517;28;20214;-83
2020/12/27 04:59:46;;;;;;;5.97;4.83;;;6.30;99.90;;;;;;5008762;28;20215;-87
2020/12/27 05:02:13;;;;;;;5.50;5.00;;;6.30;99.90;;;;;;5006179;28;20206;-86
2020/12/27 05:04:41;;;;;;;6.50;4.60;;;6.40;99.90;;;;;;5005330;28;20203;-84
2020/12/27 05:07:07;;;;;;;6.03;4.73;;;6.40;99.90;;;;;;5004943;28;20784;-82
2020/12/27 05:09:34;;;;;;;7.77;4.37;;;6.40;99.90;;;;;;5007127;28;20266;-84
2020/12/27 05:12:00;;;;;;;6.03;4.93;;;6.40;99.90;;;;;;5007151;28;20737;-82
2020/12/27 05:14:28;;;;;;;5.53;4.80;;;6.50;99.90;;;;;;5006862;28;20610;-82
2020/12/27 05:16:57;;;;;;;5.70;5.10;;;6.40;99.90;;;;;;5007449;28;20207;-84
2020/12/27 05:19:23;;;;;;;6.00;4.83;;;6.40;99.90;;;;;;5008039;28;20230;-83
2020/12/27 05:21:50;;;;;;;7.37;4.83;;;6.40;99.90;;;;;;5019525;28;20789;-85
2020/12/27 05:24:18;;;;;;;5.33;4.50;;;6.40;99.90;;;;;;5028623;28;20197;-86
2020/12/27 05:26:47;;;;;;;6.53;5.83;;;6.40;99.90;;;;;;5028836;28;20207;-84
2020/12/27 05:29:31;;;;;;;5.40;4.27;;;6.50;99.90;;;;;;5028859;28;20309;-84
2020/12/27 05:31:59;;;;;;;4.40;3.93;;;6.50;99.90;;;;;;5030469;28;20811;-85
2020/12/27 05:34:27;;;;;;;4.10;3.70;;;6.50;99.90;;;;;;5029388;28;20236;-85
2020/12/27 05:36:56;;;;;;;4.73;4.23;;;6.60;99.90;;;;;;5030920;28;20257;-89
2020/12/27 05:39:22;;;;;;;4.30;3.90;;;6.60;99.90;;;;;;5030639;28;20220;-89
2020/12/27 05:41:49;;;;;;;5.63;3.57;;;6.60;99.90;;;;;;5029808;28;20908;-84
2020/12/27 05:44:19;;;;;;;6.33;3.10;;;6.70;99.90;;;;;;5029998;28;20223;-86
2020/12/27 05:46:45;;;;;;;3.90;3.13;;;6.70;99.90;;;;;;5029908;28;20263;-85
2020/12/27 05:49:13;;;;;;;4.37;3.40;;;6.60;99.90;;;;;;5029668;28;20203;-88
2020/12/27 05:51:51;;;;;;;2.80;2.60;;;6.60;99.90;;;;;;5029658;28;20975;-87
2020/12/27 05:54:27;;;;;;;4.23;3.07;;;6.60;99.90;;;;;;5030174;28;20591;-86
2020/12/27 05:56:57;;;;;;;3.97;2.80;;;6.60;99.90;;;;;;5029803;28;20198;-87
2020/12/27 05:59:28;;;;;;;3.20;2.77;;;6.60;99.90;;;;;;5028835;28;20207;-86
2020/12/27 06:01:56;;;;;;;4.07;2.73;;;6.60;99.90;;;;;;5029962;28;20821;-85
2020/12/27 06:04:54;;;;;;;4.63;2.80;;;6.60;99.90;;;;;;5030148;28;20195;-87
2020/12/27 06:07:34;;;;;;;4.57;2.97;;;6.60;99.90;;;;;;5030383;28;20211;-88
2020/12/27 06:10:08;;;;;;;2.93;2.63;;;6.60;99.90;;;;;;5029981;28;20674;-89
2020/12/27 06:13:11;;;;;;;3.30;2.87;;;6.70;99.90;;;;;;5029798;28;20231;-84
2020/12/27 06:15:46;;;;;;;3.53;2.10;;;6.70;99.90;;;;;;5027625;28;20203;-85
2020/12/27 06:18:14;;;;;;;2.33;2.13;;;6.60;99.90;;;;;;5029866;28;20218;-94
2020/12/27 06:20:42;;;;;;;2.20;2.00;;;6.60;99.90;;;;;;5029324;28;20197;-85
2020/12/27 06:23:09;;;;;;;3.70;2.20;;;6.60;99.90;;;;;;5030294;28;20209;-89
2020/12/27 06:25:39;;;;;;;2.30;1.93;;;6.60;99.90;;;;;;5029368;28;20591;-92
2020/12/27 06:28:06;;;;;;;2.10;1.90;;;6.60;99.90;;;;;;5029470;28;20217;-85
2020/12/27 06:30:35;;;;;;;1.90;1.73;;;6.70;99.90;;;;;;5029678;28;20834;-90
2020/12/27 06:33:06;;;;;;;2.67;1.67;;;6.70;99.90;;;;;;5028067;28;20199;-91
2020/12/27 06:35:35;;;;;;;1.50;1.40;;;6.70;99.90;;;;;;5029480;28;20595;-89
2020/12/27 06:38:13;;;;;;;1.60;1.50;;;6.70;99.90;;;;;;5028929;28;20561;-85
2020/12/27 06:40:39;;;;;;;1.40;1.30;;;6.70;99.90;;;;;;5029360;28;20206;-93
2020/12/27 06:43:20;;;;;;;2.73;1.30;;;6.70;99.90;;;;;;5029108;28;20782;-85
2020/12/27 06:45:47;;;;;;;1.13;0.97;;;6.70;99.90;;;;;;5028577;28;20206;-87
2020/12/27 06:48:32;;;;;;;1.30;1.03;;;6.80;99.90;;;;;;5029108;28;20195;-86
2020/12/27 06:50:59;;;;;;;1.40;0.97;;;6.80;99.90;;;;;;5028475;28;20193;-85
2020/12/27 06:53:40;;;;;;;0.80;0.80;;;6.80;99.90;;;;;;5028382;28;20218;-82
2020/12/27 06:56:06;;;;;;;1.20;1.10;;;6.80;99.90;;;;;;5028708;28;20198;-86
2020/12/27 06:58:33;;;;;;;1.30;1.10;;;6.80;99.90;;;;;;5028518;28;20219;-83
2020/12/27 07:01:11;;;;;;;2.63;1.10;;;6.80;99.90;;;;;;5029027;28;20199;-84
2020/12/27 07:03:37;;;;;;;0.90;0.87;;;6.90;99.90;;;;;;5032070;28;20210;-84
2020/12/27 07:06:21;;;;;;;0.90;0.90;;;6.90;99.90;;;;;;5031467;28;20203;-86
2020/12/27 07:08:49;;;;;;;1.70;0.80;;;6.90;99.90;;;;;;5032111;28;20198;-84
2020/12/27 07:11:20;;;;;;;2.33;0.70;;;7.00;99.90;;;;;;5030666;28;20210;-82
2020/12/27 07:13:48;;;;;;;1.07;0.90;;;7.00;99.90;;;;;;5031282;28;20332;-83
2020/12/27 07:16:16;;;;;;;0.87;0.87;;;7.10;99.90;;;;;;5030981;28;20872;-85
2020/12/27 07:18:45;;;;;;;0.77;0.70;;;7.00;99.90;;;;;;5029925;28;20234;-82
2020/12/27 07:21:14;;;;;;;1.73;0.67;;;7.10;99.90;;;;;;5022867;28;20234;-83
2020/12/27 07:24:11;;;;;;;0.73;0.70;;;7.10;99.90;;;;;;5012290;28;20195;-83
2020/12/27 07:26:41;;;;;;;1.23;0.60;;;7.10;99.90;;;;;;5010038;28;20210;-83
2020/12/27 07:29:08;;;;;;;0.60;0.60;;;7.10;99.90;;;;;;5006848;28;20608;-85
2020/12/27 07:31:36;;;;;;;2.93;1.17;;;7.10;99.90;;;;;;5007041;28;20210;-85
2020/12/27 07:34:05;;;;;;;1.70;0.70;;;7.20;99.90;;;;;;5024569;28;20214;-87
2020/12/27 07:36:33;;;;;;;0.83;0.50;;;7.10;99.90;;;;;;5028992;28;20210;-87
2020/12/27 07:39:01;;;;;;;0.50;0.50;;;7.20;99.90;;;;;;5026704;28;20222;-81
2020/12/27 07:58:49;;;;;;;1.00;0.63;;;7.30;99.90;;;;;;4886364;29;20296;-82
2020/12/27 08:01:19;;;;;;;1.13;0.70;;;7.40;99.90;;;;;;5022357;28;20210;-83
2020/12/27 08:03:50;;;;;;;1.47;0.70;;;7.30;99.90;;;;;;5028492;28;20206;-84
2020/12/27 08:06:17;;;;;;;1.03;0.50;;;7.40;99.90;;;;;;5028074;28;20206;-84
2020/12/27 08:08:44;;;;;;;0.57;0.57;;;7.30;99.90;;;;;;5030079;28;20230;-81
2020/12/27 08:11:18;;;;;;;0.70;0.70;;;7.40;99.90;;;;;;5027851;28;20213;-79
2020/12/27 08:13:51;;;;;;;2.33;0.63;;;7.40;99.90;;;;;;5027694;28;20296;-83
2020/12/27 08:16:18;;;;;;;0.63;0.63;;;7.40;99.90;;;;;;5026919;28;20621;-82
2020/12/27 08:18:44;;;;;;;1.57;0.63;;;7.40;99.90;;;;;;5029028;28;20234;-80
2020/12/27 08:21:10;;;;;;;0.50;0.50;;;7.30;99.90;;;;;;5021728;28;20199;-83
2020/12/27 08:23:36;;;;;;;3.30;0.77;;;7.40;99.90;;;;;;5007969;28;20242;-83
2020/12/27 08:26:03;;;;;;;1.97;0.50;;;7.40;99.90;;;;;;5008183;28;20250;-82
2020/12/27 08:28:35;;;;;;;1.63;0.60;;;7.50;99.90;;;;;;5009640;28;20207;-81
2020/12/27 08:31:02;;;;;;;0.70;0.50;;;7.50;99.90;;;;;;5008630;28;20207;-84
2020/12/27 08:33:29;;;;;;;1.57;0.70;;;7.50;99.90;;;;;;5019428;28;20206;-81
2020/12/27 08:35:56;;;;;;;1.60;0.57;;;7.40;99.90;;;;;;5028007;28;20502;-83
2020/12/27 08:38:36;;;;;;;0.70;0.70;;;7.40;99.90;;;;;;5028744;28;20230;-82
2020/12/27 08:41:14;;;;;;;1.00;0.87;;;7.40;99.90;;;;;;5027648;28;20321;-84
2020/12/27 08:44:01;;;;;;;0.60;0.60;;;7.50;99.90;;;;;;5027842;28;20221;-84
2020/12/27 08:46:33;;;;;;;1.10;0.50;;;7.50;99.90;;;;;;5028714;28;20206;-84
2020/12/27 08:49:03;;;;;;;1.47;0.70;;;7.50;99.90;;;;;;5026985;28;20797;-84
2020/12/27 08:51:34;;;;;;;0.50;0.50;;;7.50;99.90;;;;;;5027197;28;20688;-85
2020/12/27 08:54:06;;;;;;;1.07;0.50;;;7.60;99.90;;;;;;5027127;28;20211;-81
2020/12/27 08:56:34;;;;;;;0.80;0.47;;;7.50;99.90;;;;;;5028022;28;20243;-83
2020/12/27 08:59:00;;;;;;;1.37;0.70;;;7.60;99.90;;;;;;5027141;28;20230;-80
2020/12/27 09:01:27;;;;;;;1.57;0.70;;;7.60;99.90;;;;;;5027960;28;20201;-81
2020/12/27 09:03:55;;;;;;;0.53;0.50;;;7.60;99.90;;;;;;5027785;28;20209;-83
2020/12/27 09:06:23;;;;;;;1.13;0.60;;;7.60;99.90;;;;;;5006302;28;20663;-83
2020/12/27 09:08:58;;;;;;;0.80;0.60;;;7.60;99.90;;;;;;5005178;28;20293;-82
2020/12/27 09:11:25;;;;;;;0.60;0.60;;;7.60;99.90;;;;;;5003742;28;20635;-81
2020/12/27 09:13:51;;;;;;;1.00;0.50;;;7.60;99.90;;;;;;5006480;28;20599;-84
2020/12/27 09:16:33;;;;;;;2.53;0.50;;;7.70;99.90;;;;;;5006277;28;20195;-83
2020/12/27 09:19:09;;;;;;;1.00;0.50;;;7.70;99.90;;;;;;5006086;28;20334;-89
2020/12/27 09:21:41;;;;;;;0.97;0.50;;;7.70;99.90;;;;;;5005319;28;20253;-83
2020/12/27 09:24:14;;;;;;;0.40;0.40;;;7.70;99.90;;;;;;5001656;28;20226;-80
2020/12/27 09:26:41;;;;;;;3.50;0.63;;;7.70;99.90;;;;;;5005569;28;20228;-86
2020/12/27 09:29:17;;;;;;;0.40;0.40;;;7.70;99.90;;;;;;5006921;28;20203;-86
2020/12/27 09:31:44;;;;;;;0.40;0.40;;;7.70;99.90;;;;;;5005222;28;20218;-79
2020/12/27 09:34:12;;;;;;;1.30;0.90;;;7.60;99.90;;;;;;5004058;28;20509;-80
2020/12/27 09:36:39;;;;;;;2.20;0.50;;;7.70;99.90;;;;;;5005222;28;20211;-82
2020/12/27 09:39:06;;;;;;;0.83;0.63;;;7.70;99.90;;;;;;5004178;28;20338;-80
2020/12/27 09:41:38;;;;;;;0.50;0.50;;;7.70;99.90;;;;;;5003808;28;20211;-80
2020/12/27 09:44:05;;;;;;;0.53;0.53;;;7.70;99.90;;;;;;5004149;28;20604;-82
2020/12/27 09:46:42;;;;;;;0.40;0.40;;;7.70;99.90;;;;;;5005970;28;20257;-84
2020/12/27 09:49:21;;;;;;;0.40;0.40;;;7.70;99.90;;;;;;5003069;28;20525;-82
2020/12/27 09:52:04;;;;;;;0.80;0.40;;;7.60;99.90;;;;;;5006679;28;20772;-87
2020/12/27 09:54:31;;;;;;;1.37;0.40;;;7.60;99.90;;;;;;5005278;28;20557;-85
2020/12/27 09:56:58;;;;;;;0.87;0.47;;;7.70;99.90;;;;;;5008849;28;20239;-87
2020/12/27 09:59:25;;;;;;;0.60;0.40;;;7.70;99.90;;;;;;5008738;28;20881;-84
2020/12/27 10:01:51;;;;;;;2.53;0.70;;;7.70;99.90;;;;;;5008549;28;20199;-81
2020/12/27 10:04:18;;;;;;;0.57;0.50;;;7.70;99.90;;;;;;5007437;28;20222;-84
2020/12/27 10:06:47;;;;;;;0.87;0.60;;;7.70;99.90;;;;;;5007315;28;21005;-82
2020/12/27 10:09:14;;;;;;;0.60;0.60;;;7.80;99.90;;;;;;5006475;28;20219;-84
2020/12/27 10:11:40;;;;;;;0.50;0.50;;;7.80;99.90;;;;;;5006817;28;20235;-86
2020/12/27 10:14:07;;;;;;;1.03;0.50;;;7.80;99.90;;;;;;5008321;28;20206;-84
2020/12/27 10:16:33;;;;;;;0.50;0.50;;;7.80;99.90;;;;;;5008726;28;20208;-85
2020/12/27 10:18:59;;;;;;;0.50;0.50;;;7.80;99.90;;;;;;5008076;28;20237;-84
2020/12/27 10:21:26;;;;;;;3.07;1.00;;;7.80;99.90;;;;;;5008570;28;20210;-83
2020/12/27 10:23:53;;;;;;;1.47;0.50;;;7.90;99.90;;;;;;5008410;28;20954;-85
2020/12/27 10:26:20;;;;;;;2.57;0.50;;;7.90;99.90;;;;;;5008236;28;20199;-85
2020/12/27 10:28:46;;;;;;;1.60;0.60;;;7.90;99.90;;;;;;5008336;28;20210;-83
2020/12/27 10:31:12;;;;;;;1.00;0.60;;;8.00;99.90;;;;;;5007937;28;20238;-84
2020/12/27 10:33:38;;;;;;;0.37;0.30;;;8.00;99.90;;;;;;5009327;28;20214;-86
2020/12/27 10:36:05;;;;;;;1.13;0.50;;;8.00;99.90;;;;;;5009849;28;20203;-84
2020/12/27 10:38:31;;;;;;;0.40;0.40;;;7.90;99.90;;;;;;5012854;28;20278;-87
2020/12/27 10:41:00;;;;;;;0.40;0.40;;;7.90;99.90;;;;;;5013831;28;20536;-89
2020/12/27 10:43:26;;;;;;;0.70;0.70;;;7.90;99.90;;;;;;5013247;28;20682;-89
2020/12/27 10:45:58;;;;;;;0.87;0.50;;;7.90;99.90;;;;;;5012354;28;20642;-87
2020/12/27 10:48:24;;;;;;;2.17;0.70;;;7.90;99.90;;;;;;5012183;28;20226;-89
2020/12/27 10:50:51;;;;;;;0.50;0.50;;;7.80;99.90;;;;;;5013109;28;20345;-87
2020/12/27 10:53:17;;;;;;;1.50;0.80;;;7.80;99.90;;;;;;5012999;28;20200;-87
2020/12/27 10:55:46;;;;;;;0.50;0.50;;;7.80;99.90;;;;;;5013323;28;20784;-88
2020/12/27 10:58:13;;;;;;;1.33;0.90;;;7.80;99.90;;;;;;5009594;28;20200;-89
2020/12/27 11:00:40;;;;;;;1.97;0.73;;;7.70;99.90;;;;;;5009601;28;20231;-85
2020/12/27 11:03:06;;;;;;;1.27;0.50;;;7.70;99.90;;;;;;5009688;28;20211;-85
2020/12/27 11:05:32;;;;;;;3.67;0.87;;;7.70;99.90;;;;;;5009175;28;20212;-84
2020/12/27 11:07:59;;;;;;;2.53;0.97;;;7.70;99.90;;;;;;5009851;28;20207;-86
2020/12/27 11:10:25;;;;;;;1.20;0.80;;;7.70;99.90;;;;;;5009189;28;20206;-86
2020/12/27 11:12:52;;;;;;;3.00;0.90;;;7.60;99.90;;;;;;5010310;28;20239;-87
2020/12/27 11:15:19;;;;;;;3.93;0.80;;;7.60;99.90;;;;;;5007376;28;20234;-86
2020/12/27 11:17:46;;;;;;;1.00;0.90;;;7.50;99.90;;;;;;5008720;28;20227;-86
2020/12/27 11:20:13;;;;;;;1.50;0.87;;;7.50;99.90;;;;;;5009799;28;20234;-86
2020/12/27 11:22:40;;;;;;;1.20;0.83;;;7.50;99.90;;;;;;5023250;28;20207;-89
2020/12/27 11:25:06;;;;;;;2.93;0.80;;;7.50;99.90;;;;;;5023132;28;20215;-88
2020/12/27 11:27:33;;;;;;;7.50;1.00;;;7.50;99.90;;;;;;5011529;28;20254;-88
2020/12/27 11:29:59;;;;;;;3.40;0.97;;;7.50;99.90;;;;;;5009130;28;20199;-84
2020/12/27 11:32:28;;;;;;;2.40;1.13;;;7.40;99.90;;;;;;5010748;28;20200;-84
2020/12/27 11:34:54;;;;;;;12.67;2.97;;;7.50;99.90;;;;;;5010274;28;20208;-90
2020/12/27 11:37:20;;;;;;;13.17;2.53;;;7.40;99.90;;;;;;5009002;28;20203;-90
2020/12/27 11:39:51;;;;;;;11.97;2.67;;;7.20;99.90;;;;;;5010463;28;20219;-92
2020/12/27 11:42:18;;;;;;;13.70;3.13;;;6.90;99.90;;;;;;5010024;28;20230;-86
2020/12/27 11:44:44;;;;;;;16.60;3.10;;;6.80;99.90;;;;;;5009483;28;20246;-86
2020/12/27 11:47:10;;;;;;;18.73;3.77;;;6.70;99.90;;;;;;5010996;28;20198;-90
2020/12/27 11:49:37;;;;;;;11.33;2.50;;;6.70;99.90;;;;;;5013696;28;20214;-87
2020/12/27 11:52:04;;;;;;;18.97;3.80;;;6.90;99.90;;;;;;5013866;28;20204;-87
2020/12/27 11:54:30;;;;;;;20.10;3.87;;;7.00;99.90;;;;;;5014466;28;20207;-90
2020/12/27 11:56:57;;;;;;;27.27;4.30;;;7.10;99.90;;;;;;5014320;28;20780;-87
2020/12/27 11:59:23;;;;;;;26.53;3.73;;;7.20;99.90;;;;;;5012874;28;20223;-88
2020/12/27 12:01:50;;;;;;;25.67;4.90;;;7.30;99.90;;;;;;5012858;28;20218;-92
2020/12/27 12:04:17;;;;;;;17.63;3.80;;;7.30;99.90;;;;;;5012901;28;20518;-86
2020/12/27 12:06:47;;;;;;;15.87;3.30;;;7.40;99.90;;;;;;5012923;28;20215;-86
2020/12/27 12:09:14;;;;;;;10.83;2.47;;;7.40;99.90;;;;;;5013514;28;20600;-88
2020/12/27 12:11:41;;;;;;;13.30;3.23;;;7.40;99.90;;;;;;5019099;28;20235;-88
2020/12/27 12:14:08;;;;;;;10.83;2.10;;;7.40;99.90;;;;;;5032186;28;20171;-86
2020/12/27 12:16:35;;;;;;;10.63;2.33;;;7.40;99.90;;;;;;5032462;28;20183;-90
2020/12/27 12:19:03;;;;;;;9.80;2.10;;;7.30;99.90;;;;;;5016576;28;20268;-86
2020/12/27 12:24:06;;;;;;;11.63;2.77;;;7.30;99.90;;;;;;5023823;23;20255;-87
2020/12/27 12:26:33;;;;;;;14.80;2.23;;;7.30;99.90;;;;;;4991592;28;20203;-82
2020/12/27 12:29:00;;;;;;;11.10;2.57;;;7.30;99.90;;;;;;4990816;28;20871;-82
2020/12/27 12:31:27;;;;;;;12.43;2.33;;;7.30;99.90;;;;;;4991666;28;20212;-83
2020/12/27 12:33:54;;;;;;;13.93;2.13;;;7.30;99.90;;;;;;4991102;28;20211;-82
2020/12/27 12:36:23;;;;;;;12.53;2.50;;;7.30;99.90;;;;;;4990743;28;20196;-90
2020/12/27 12:38:50;;;;;;;9.27;2.47;;;7.30;99.90;;;;;;4992526;28;20228;-87
2020/12/27 12:41:23;;;;;;;12.37;2.53;;;7.30;99.90;;;;;;4991802;28;20206;-84
2020/12/27 12:43:49;;;;;;;11.27;2.17;;;7.30;99.90;;;;;;4990186;28;20231;-83
2020/12/27 12:46:17;;;;;;;7.80;1.90;;;7.30;99.90;;;;;;4991934;28;20216;-86
2020/12/27 12:48:45;;;;;;;6.80;2.07;;;7.30;99.90;;;;;;4991368;28;20616;-86
2020/12/27 12:51:12;;;;;;;12.30;2.40;;;7.20;99.90;;;;;;4991631;28;20223;-87
2020/12/27 12:53:40;;;;;;;9.90;2.17;;;7.20;99.90;;;;;;4991118;28;20871;-88
2020/12/27 12:56:10;;;;;;;18.53;2.40;;;7.20;99.90;;;;;;4990387;28;20204;-86
2020/12/27 12:58:37;;;;;;;8.60;2.40;;;7.20;99.90;;;;;;4991099;28;20456;-89
2020/12/27 13:01:04;;;;;;;11.50;2.50;;;7.20;99.90;;;;;;4991815;28;20204;-86
2020/12/27 13:03:30;;;;;;;12.50;2.10;;;7.20;99.90;;;;;;4988978;28;20251;-81
2020/12/27 13:05:56;;;;;;;12.07;2.77;;;7.20;99.90;;;;;;4992257;28;20204;-86
2020/12/27 13:08:22;;;;;;;6.57;2.77;;;7.20;99.90;;;;;;4991606;28;20204;-86
2020/12/27 13:10:50;;;;;;;8.87;2.20;;;7.20;99.90;;;;;;4986259;28;20238;-84
2020/12/27 13:13:17;;;;;;;4.50;2.00;;;7.20;99.90;;;;;;4988398;28;20196;-84
2020/12/27 13:15:44;;;;;;;5.73;1.43;;;7.20;99.90;;;;;;4988247;28;20208;-84
2020/12/27 13:18:10;;;;;;;6.70;1.80;;;7.20;99.90;;;;;;4989132;28;20231;-85
2020/12/27 13:20:37;;;;;;;3.73;1.50;;;7.20;99.90;;;;;;4989713;28;20314;-85
2020/12/27 13:23:03;;;;;;;2.53;1.00;;;7.10;99.90;;;;;;4989959;28;20247;-87